Lewisville, TX

1:43 AM CDT on July 03, 2015 (GMT -0500)
Westchester | | Change Station
CLOSE
Current Station
Personal Weather Station
Location: Flower Mound, TX
Elevation: 646 ft
Nearby Weather Stations

Elev 646 ft 33.04 °N, 97.07 °W | Updated 2 seconds ago

Partly Cloudy
Partly Cloudy
83.5 °F
Feels Like 91 °F
N
5.4
Wind Variable Wind from South
Gusts 15.2 mph

Today
High -- | Low -- °F
--% Chance of Precip.
Yesterday
High -- | Low -- °F
Precip. -- in
6:23 AM 8:40 PM
Full, 98% visible
Pressure 29.89 in
Visibility 10.0 miles
Clouds Mostly Cloudy 20000 ft
Overcast 30000 ft
Heat Index 91 °F
Dew Point 75 °F
Humidity 76%
Rainfall 0.00 in
Snow Depth Not available.
UV 0.0 out of 12
Pollen 5.20 out of 12
Air Quality Not available.
Flu Activity Not available.
METAR KDFW 030553Z 20018KT 10SM BKN200 OVC300 29/21 A2992 RMK AO2 SLP122 T02890206 10328 20289 403390233 51008

More Conditions Fewer Conditions

Pressure 29.89 in
Visibility 10.0 miles
Clouds Mostly Cloudy 20000 ft
Overcast 30000 ft
Heat Index 91 °F
Dew Point 75 °F
Humidity 76%
Rainfall 0.00 in
Snow Depth Not available.
UV 0.0 out of 12
Pollen 5.20 out of 12
Air Quality Not available.
Flu Activity Not available.
METAR KDFW 030553Z 20018KT 10SM BKN200 OVC300 29/21 A2992 RMK AO2 SLP122 T02890206 10328 20289 403390233 51008

More Conditions Fewer Conditions

10-Day Weather Forecast

×

Almanac

Astronomy

Jul. 03, 2015 Rise Set
Actual Time
Civil Twilight
Nautical Twilight
Astronomical Twilight
Moon
Length of Visible Light
Length of Day
Tomorrow will be .
, % of the Moon is Illuminated

Today's Extremes

State Highs State Lows

Community

WunderPhotos

Upload Photos

1,834,634 photos uploaded!

WunderBlogs® & News

Nearby

Air Quality

  Air Quality AQ Index Pollutant
Not available.

Snow Depth

Station Depth Elevation

Earthquake Activity

City Distance Mag. Time & Date
Minimum magnitude displayed is 2.5.

Coastal Water Temperatures

Place Temperature

Stations

Nearby Weather Stations

Station Location Temp. Windchill Dew Point Humidity Wind Precip. Elev Updated Type